PWSweather.com
Personal Weather Stations
Station Observations
IPORTUGA89
BarosaPT

BarosaPT

Lat: 39.754028, Lon: -8.843

Elevation: 98

Station Type: Davis Vp2

Latest ConditionsUpdated 10:53:06 PM GMT Sunday, Jan 19, 2020
Currently Today's Max Today's Min Today's Average
Temperature 50.5°F10.3°C 61.2°F16.2°C 47.8°F8.8°C 54.2°F12.3°C
Dew Point 25.2°F-3.8°C 50.9°F10.5°C 24.3°F-4.3°C 44.2°F6.8°C
Winds 16.1 mph NE25.9 kmh NE 16.1 mph -25.9 kmh - - 6.7 mph 10.8 kmh
Wind Gusts 31.1 mph50.1 kmh 33.1 mph53.3 kmh - -
Humidity 37% 89% 35% 71%
Pressure 30.41 in1029.8 mb 30.43 in1030.5 mb 30.32 in1026.8 mb -
Hour Temp Dew Point Humidity Winds Wind Gusts Pressure Precip Precip Rate Daily Precip Total
10:53 PM 50.5°F10.3°C 25.2°F-3.8°C 37% 16.1 mph NE25.9 kmh NE 31.1 mph50.1 kmh 30.41 in1029.8 mb 0.00 in0.0 mm 0.00 in0.0 mm 0.00 in0.0 mm
10:43 PM 50.9°F10.5°C 24.3°F-4.3°C 35% 16.1 mph NE25.9 kmh NE 33.1 mph53.3 kmh 30.41 in1029.8 mb 0.00 in0.0 mm 0.00 in0.0 mm 0.00 in0.0 mm
10:33 PM 50.7°F10.4°C 25.3°F-3.7°C 37% 12.1 mph NNE19.5 kmh NNE 21.0 mph33.8 kmh 30.42 in1030.1 mb 0.00 in0.0 mm 0.00 in0.0 mm 0.00 in0.0 mm
10:23 PM 50.7°F10.4°C 25.3°F-3.7°C 37% 11.0 mph NE17.7 kmh NE 25.1 mph40.4 kmh 30.43 in1030.5 mb 0.00 in0.0 mm 0.00 in0.0 mm 0.00 in0.0 mm
10:13 PM 51.3°F10.7°C 25.9°F-3.4°C 37% 13.0 mph NE20.9 kmh NE 23.9 mph38.5 kmh 30.43 in1030.5 mb 0.00 in0.0 mm 0.00 in0.0 mm 0.00 in0.0 mm
10:03 PM 51.4°F10.8°C 25.3°F-3.7°C 36% 12.1 mph NE19.5 kmh NE 25.1 mph40.4 kmh 30.43 in1030.5 mb 0.00 in0.0 mm 0.00 in0.0 mm 0.00 in0.0 mm
09:52 PM 51.6°F10.9°C 24.8°F-4.0°C 35% 16.1 mph NE25.9 kmh NE 29.1 mph46.8 kmh 30.42 in1030.1 mb 0.00 in0.0 mm 0.00 in0.0 mm 0.00 in0.0 mm
09:42 PM 51.3°F10.7°C 25.9°F-3.4°C 37% 13.0 mph N20.9 kmh N 31.1 mph50.1 kmh 30.42 in1030.1 mb 0.00 in0.0 mm 0.00 in0.0 mm 0.00 in0.0 mm
09:32 PM 50.7°F10.4°C 27.9°F-2.3°C 41% 13.0 mph NNW20.9 kmh NNW 25.9 mph41.7 kmh 30.41 in1029.8 mb 0.00 in0.0 mm 0.00 in0.0 mm 0.00 in0.0 mm
09:22 PM 49.3°F9.6°C 32.4°F0.2°C 52% 8.9 mph NNE14.3 kmh NNE 19.9 mph32.0 kmh 30.43 in1030.5 mb 0.00 in0.0 mm 0.00 in0.0 mm 0.00 in0.0 mm
09:12 PM 47.8°F8.8°C 35.1°F1.7°C 61% 4.9 mph 7.9 kmh 13.0 mph20.9 kmh 30.42 in1030.1 mb 0.00 in0.0 mm 0.00 in0.0 mm 0.00 in0.0 mm
09:02 PM 47.8°F8.8°C 36.7°F2.6°C 65% 2.9 mph NNE4.7 kmh NNE 4.0 mph6.4 kmh 30.43 in1030.5 mb 0.00 in0.0 mm 0.00 in0.0 mm 0.00 in0.0 mm
08:52 PM 48.6°F9.2°C 38.1°F3.4°C 67% 2.9 mph NNE4.7 kmh NNE 8.9 mph14.3 kmh 30.42 in1030.1 mb 0.00 in0.0 mm 0.00 in0.0 mm 0.00 in0.0 mm
08:42 PM 48.9°F9.4°C 39.2°F4.0°C 69% 4.0 mph NE6.4 kmh NE 8.9 mph14.3 kmh 30.42 in1030.1 mb 0.00 in0.0 mm 0.00 in0.0 mm 0.00 in0.0 mm
08:32 PM 48.9°F9.4°C 41.0°F5.0°C 74% 2.0 mph NE3.2 kmh NE 8.9 mph14.3 kmh 30.42 in1030.1 mb 0.00 in0.0 mm 0.00 in0.0 mm 0.00 in0.0 mm
08:22 PM 48.9°F9.4°C 41.7°F5.4°C 76% 2.0 mph NE3.2 kmh NE 8.9 mph14.3 kmh 30.42 in1030.1 mb 0.00 in0.0 mm 0.00 in0.0 mm 0.00 in0.0 mm
08:12 PM 49.3°F9.6°C 42.1°F5.6°C 76% 2.0 mph NE3.2 kmh NE 6.0 mph9.7 kmh 30.42 in1030.1 mb 0.00 in0.0 mm 0.00 in0.0 mm 0.00 in0.0 mm
08:02 PM 49.3°F9.6°C 42.4°F5.8°C 77% 2.9 mph NE4.7 kmh NE 6.9 mph11.1 kmh 30.41 in1029.8 mb 0.00 in0.0 mm 0.00 in0.0 mm 0.00 in0.0 mm
07:52 PM 48.9°F9.4°C 41.7°F5.4°C 76% 2.0 mph ENE3.2 kmh ENE 4.9 mph7.9 kmh 30.41 in1029.8 mb 0.00 in0.0 mm 0.00 in0.0 mm 0.00 in0.0 mm
07:42 PM 49.8°F9.9°C 42.3°F5.7°C 75% Calm Calm 4.0 mph6.4 kmh 30.41 in1029.8 mb 0.00 in0.0 mm 0.00 in0.0 mm 0.00 in0.0 mm
07:32 PM 50.7°F10.4°C 42.4°F5.8°C 73% 0.9 mph NE1.4 kmh NE 2.9 mph4.7 kmh 30.40 in1029.5 mb 0.00 in0.0 mm 0.00 in0.0 mm 0.00 in0.0 mm
07:22 PM 51.6°F10.9°C 43.0°F6.1°C 72% 2.0 mph NE3.2 kmh NE 6.0 mph9.7 kmh 30.40 in1029.5 mb 0.00 in0.0 mm 0.00 in0.0 mm 0.00 in0.0 mm
07:12 PM 52.7°F11.5°C 43.5°F6.4°C 71% 4.0 mph NE6.4 kmh NE 8.1 mph13.0 kmh 30.40 in1029.5 mb 0.00 in0.0 mm 0.00 in0.0 mm 0.00 in0.0 mm
07:02 PM 53.4°F11.9°C 44.2°F6.8°C 71% 4.0 mph NNE6.4 kmh NNE 10.1 mph16.3 kmh 30.40 in1029.5 mb 0.00 in0.0 mm 0.00 in0.0 mm 0.00 in0.0 mm
06:52 PM 54.0°F12.2°C 44.4°F6.9°C 70% 6.9 mph NNE11.1 kmh NNE 13.0 mph20.9 kmh 30.39 in1029.1 mb 0.00 in0.0 mm 0.00 in0.0 mm 0.00 in0.0 mm
06:42 PM 54.0°F12.2°C 44.8°F7.1°C 71% 8.1 mph N13.0 kmh N 15.0 mph24.1 kmh 30.39 in1029.1 mb 0.00 in0.0 mm 0.00 in0.0 mm 0.00 in0.0 mm
06:32 PM 53.4°F11.9°C 45.0°F7.2°C 73% 6.9 mph N11.1 kmh N 16.1 mph25.9 kmh 30.38 in1028.8 mb 0.00 in0.0 mm 0.00 in0.0 mm 0.00 in0.0 mm
06:22 PM 51.6°F10.9°C 43.3°F6.3°C 73% 4.0 mph N6.4 kmh N 8.9 mph14.3 kmh 30.37 in1028.4 mb 0.00 in0.0 mm 0.00 in0.0 mm 0.00 in0.0 mm
06:12 PM 50.5°F10.3°C 40.8°F4.9°C 69% 2.0 mph NW3.2 kmh NW 4.9 mph7.9 kmh 30.37 in1028.4 mb 0.00 in0.0 mm 0.00 in0.0 mm 0.00 in0.0 mm
06:02 PM 51.4°F10.8°C 40.1°F4.5°C 65% 2.9 mph NW4.7 kmh NW 8.9 mph14.3 kmh 30.37 in1028.4 mb 0.00 in0.0 mm 0.00 in0.0 mm 0.00 in0.0 mm
05:52 PM 51.3°F10.7°C 38.7°F3.7°C 62% 4.0 mph NW6.4 kmh NW 6.0 mph9.7 kmh 30.37 in1028.4 mb 0.00 in0.0 mm 0.00 in0.0 mm 0.00 in0.0 mm
05:42 PM 52.2°F11.2°C 39.2°F4.0°C 61% 2.9 mph 4.7 kmh 4.9 mph7.9 kmh 30.36 in1028.1 mb 0.00 in0.0 mm 0.00 in0.0 mm 0.00 in0.0 mm
05:32 PM 54.7°F12.6°C 39.7°F4.3°C 57% 2.0 mph N3.2 kmh N 2.9 mph4.7 kmh 30.36 in1028.1 mb 0.00 in0.0 mm 0.00 in0.0 mm 0.00 in0.0 mm
05:22 PM 57.4°F14.1°C 36.7°F2.6°C 46% 2.9 mph N4.7 kmh N 4.9 mph7.9 kmh 30.36 in1028.1 mb 0.00 in0.0 mm 0.00 in0.0 mm 0.00 in0.0 mm
05:11 PM 58.3°F14.6°C 37.0°F2.8°C 45% 4.0 mph N6.4 kmh N 8.1 mph13.0 kmh 30.35 in1027.8 mb 0.00 in0.0 mm 0.00 in0.0 mm 0.00 in0.0 mm
05:01 PM 58.6°F14.8°C 37.4°F3.0°C 45% 6.0 mph N9.7 kmh N 12.1 mph19.5 kmh 30.36 in1028.1 mb 0.00 in0.0 mm 0.00 in0.0 mm 0.00 in0.0 mm
04:51 PM 59.4°F15.2°C 38.7°F3.7°C 46% 4.0 mph NNE6.4 kmh NNE 10.1 mph16.3 kmh 30.36 in1028.1 mb 0.00 in0.0 mm 0.00 in0.0 mm 0.00 in0.0 mm
04:41 PM 59.7°F15.4°C 37.8°F3.2°C 44% 4.0 mph N6.4 kmh N 8.9 mph14.3 kmh 30.36 in1028.1 mb 0.00 in0.0 mm 0.00 in0.0 mm 0.00 in0.0 mm
04:31 PM 60.1°F15.6°C 37.6°F3.1°C 43% 6.9 mph N11.1 kmh N 14.1 mph22.7 kmh 30.35 in1027.8 mb 0.00 in0.0 mm 0.00 in0.0 mm 0.00 in0.0 mm
04:21 PM 60.4°F15.8°C 37.8°F3.2°C 43% 8.9 mph ENE14.3 kmh ENE 16.1 mph25.9 kmh 30.36 in1028.1 mb 0.00 in0.0 mm 0.00 in0.0 mm 0.00 in0.0 mm
04:11 PM 60.6°F15.9°C 36.9°F2.7°C 41% 6.9 mph N11.1 kmh N 13.0 mph20.9 kmh 30.36 in1028.1 mb 0.00 in0.0 mm 0.00 in0.0 mm 0.00 in0.0 mm
04:01 PM 60.6°F15.9°C 37.4°F3.0°C 42% 6.9 mph NE11.1 kmh NE 17.9 mph28.8 kmh 30.36 in1028.1 mb 0.00 in0.0 mm 0.00 in0.0 mm 0.00 in0.0 mm
03:51 PM 61.0°F16.1°C 37.8°F3.2°C 42% 8.9 mph NE14.3 kmh NE 17.0 mph27.4 kmh 30.36 in1028.1 mb 0.00 in0.0 mm 0.00 in0.0 mm 0.00 in0.0 mm
03:41 PM 61.0°F16.1°C 37.8°F3.2°C 42% 8.9 mph NE14.3 kmh NE 17.9 mph28.8 kmh 30.36 in1028.1 mb 0.00 in0.0 mm 0.00 in0.0 mm 0.00 in0.0 mm
03:31 PM 61.0°F16.1°C 37.8°F3.2°C 42% 11.0 mph NNE17.7 kmh NNE 25.9 mph41.7 kmh 30.35 in1027.8 mb 0.00 in0.0 mm 0.00 in0.0 mm 0.00 in0.0 mm
03:21 PM 61.2°F16.2°C 37.9°F3.3°C 42% 11.0 mph NNE17.7 kmh NNE 19.9 mph32.0 kmh 30.35 in1027.8 mb 0.00 in0.0 mm 0.00 in0.0 mm 0.00 in0.0 mm
03:11 PM 61.2°F16.2°C 40.3°F4.6°C 46% 8.1 mph NE13.0 kmh NE 17.0 mph27.4 kmh 30.34 in1027.4 mb 0.00 in0.0 mm 0.00 in0.0 mm 0.00 in0.0 mm
03:01 PM 61.0°F16.1°C 40.6°F4.8°C 47% 10.1 mph NE16.3 kmh NE 23.9 mph38.5 kmh 30.34 in1027.4 mb 0.00 in0.0 mm 0.00 in0.0 mm 0.00 in0.0 mm
02:51 PM 61.0°F16.1°C 42.8°F6.0°C 51% 8.9 mph NNE14.3 kmh NNE 17.0 mph27.4 kmh 30.34 in1027.4 mb 0.00 in0.0 mm 0.00 in0.0 mm 0.00 in0.0 mm
02:41 PM 61.2°F16.2°C 43.0°F6.1°C 51% 8.1 mph NE13.0 kmh NE 16.1 mph25.9 kmh 30.34 in1027.4 mb 0.00 in0.0 mm 0.00 in0.0 mm 0.00 in0.0 mm
02:31 PM 60.6°F15.9°C 43.9°F6.6°C 54% 11.0 mph NE17.7 kmh NE 23.9 mph38.5 kmh 30.35 in1027.8 mb 0.00 in0.0 mm 0.00 in0.0 mm 0.00 in0.0 mm
02:21 PM 60.6°F15.9°C 44.4°F6.9°C 55% 10.1 mph E16.3 kmh E 23.0 mph37.0 kmh 30.35 in1027.8 mb 0.00 in0.0 mm 0.00 in0.0 mm 0.00 in0.0 mm
02:11 PM 60.6°F15.9°C 44.4°F6.9°C 55% 13.0 mph NNE20.9 kmh NNE 21.9 mph35.2 kmh 30.35 in1027.8 mb 0.00 in0.0 mm 0.00 in0.0 mm 0.00 in0.0 mm
02:01 PM 60.6°F15.9°C 44.4°F6.9°C 55% 13.0 mph NNE20.9 kmh NNE 21.9 mph35.2 kmh 30.35 in1027.8 mb 0.00 in0.0 mm 0.00 in0.0 mm 0.00 in0.0 mm
01:51 PM 60.6°F15.9°C 45.3°F7.4°C 57% 12.1 mph N19.5 kmh N 21.9 mph35.2 kmh 30.36 in1028.1 mb 0.00 in0.0 mm 0.00 in0.0 mm 0.00 in0.0 mm
01:41 PM 60.3°F15.7°C 46.8°F8.2°C 61% 10.1 mph N16.3 kmh N 23.0 mph37.0 kmh 30.36 in1028.1 mb 0.00 in0.0 mm 0.00 in0.0 mm 0.00 in0.0 mm
01:31 PM 60.1°F15.6°C 46.2°F7.9°C 60% 8.9 mph NE14.3 kmh NE 17.9 mph28.8 kmh 30.36 in1028.1 mb 0.00 in0.0 mm 0.00 in0.0 mm 0.00 in0.0 mm
01:21 PM 59.5°F15.3°C 46.0°F7.8°C 61% 12.1 mph N19.5 kmh N 23.0 mph37.0 kmh 30.36 in1028.1 mb 0.00 in0.0 mm 0.00 in0.0 mm 0.00 in0.0 mm
01:11 PM 59.4°F15.2°C 45.0°F7.2°C 59% 14.1 mph N22.7 kmh N 25.9 mph41.7 kmh 30.36 in1028.1 mb 0.00 in0.0 mm 0.00 in0.0 mm 0.00 in0.0 mm
01:01 PM 59.4°F15.2°C 46.8°F8.2°C 63% 12.1 mph N19.5 kmh N 23.0 mph37.0 kmh 30.36 in1028.1 mb 0.00 in0.0 mm 0.00 in0.0 mm 0.00 in0.0 mm
12:51 PM 59.4°F15.2°C 47.7°F8.7°C 65% 10.1 mph NE16.3 kmh NE 19.0 mph30.6 kmh 30.36 in1028.1 mb 0.00 in0.0 mm 0.00 in0.0 mm 0.00 in0.0 mm
12:41 PM 58.8°F14.9°C 46.6°F8.1°C 64% 8.1 mph NE13.0 kmh NE 19.0 mph30.6 kmh 30.36 in1028.1 mb 0.00 in0.0 mm 0.00 in0.0 mm 0.00 in0.0 mm
12:31 PM 58.8°F14.9°C 47.5°F8.6°C 66% 11.0 mph NE17.7 kmh NE 21.0 mph33.8 kmh 30.37 in1028.4 mb 0.00 in0.0 mm 0.00 in0.0 mm 0.00 in0.0 mm
12:21 PM 58.6°F14.8°C 47.7°F8.7°C 67% 6.9 mph NE11.1 kmh NE 17.0 mph27.4 kmh 30.37 in1028.4 mb 0.00 in0.0 mm 0.00 in0.0 mm 0.00 in0.0 mm
12:11 PM 57.9°F14.4°C 47.5°F8.6°C 68% 6.9 mph N11.1 kmh N 14.1 mph22.7 kmh 30.38 in1028.8 mb 0.00 in0.0 mm 0.00 in0.0 mm 0.00 in0.0 mm
12:01 PM 57.9°F14.4°C 48.6°F9.2°C 71% 8.1 mph NE13.0 kmh NE 13.0 mph20.9 kmh 30.38 in1028.8 mb 0.00 in0.0 mm 0.00 in0.0 mm 0.00 in0.0 mm
11:51 AM 57.2°F14.0°C 48.6°F9.2°C 73% 4.9 mph N7.9 kmh N 12.1 mph19.5 kmh 30.38 in1028.8 mb 0.00 in0.0 mm 0.00 in0.0 mm 0.00 in0.0 mm
11:41 AM 56.8°F13.8°C 48.9°F9.4°C 75% 6.9 mph N11.1 kmh N 12.1 mph19.5 kmh 30.39 in1029.1 mb 0.00 in0.0 mm 0.00 in0.0 mm 0.00 in0.0 mm
11:31 AM 56.5°F13.6°C 48.7°F9.3°C 75% 6.0 mph N9.7 kmh N 13.0 mph20.9 kmh 30.39 in1029.1 mb 0.00 in0.0 mm 0.00 in0.0 mm 0.00 in0.0 mm
11:21 AM 56.1°F13.4°C 48.9°F9.4°C 77% 4.9 mph 7.9 kmh 11.0 mph17.7 kmh 30.40 in1029.5 mb 0.00 in0.0 mm 0.00 in0.0 mm 0.00 in0.0 mm
11:11 AM 55.8°F13.2°C 48.4°F9.1°C 76% 6.0 mph NNE9.7 kmh NNE 12.1 mph19.5 kmh 30.40 in1029.5 mb 0.00 in0.0 mm 0.00 in0.0 mm 0.00 in0.0 mm
11:00 AM 55.8°F13.2°C 48.7°F9.3°C 77% 6.9 mph ENE11.1 kmh ENE 13.0 mph20.9 kmh 30.40 in1029.5 mb 0.00 in0.0 mm 0.00 in0.0 mm 0.00 in0.0 mm
10:50 AM 55.6°F13.1°C 48.9°F9.4°C 78% 6.9 mph NE11.1 kmh NE 15.0 mph24.1 kmh 30.40 in1029.5 mb 0.00 in0.0 mm 0.00 in0.0 mm 0.00 in0.0 mm
10:40 AM 55.2°F12.9°C 48.7°F9.3°C 79% 6.0 mph NNW9.7 kmh NNW 11.0 mph17.7 kmh 30.40 in1029.5 mb 0.00 in0.0 mm 0.00 in0.0 mm 0.00 in0.0 mm
10:30 AM 54.9°F12.7°C 48.7°F9.3°C 80% 6.9 mph N11.1 kmh N 13.0 mph20.9 kmh 30.40 in1029.5 mb 0.00 in0.0 mm 0.00 in0.0 mm 0.00 in0.0 mm
10:20 AM 54.5°F12.5°C 49.1°F9.5°C 82% 4.9 mph N7.9 kmh N 11.0 mph17.7 kmh 30.40 in1029.5 mb 0.00 in0.0 mm 0.00 in0.0 mm 0.00 in0.0 mm
10:10 AM 53.8°F12.1°C 48.4°F9.1°C 82% 8.1 mph 13.0 kmh 15.0 mph24.1 kmh 30.40 in1029.5 mb 0.00 in0.0 mm 0.00 in0.0 mm 0.00 in0.0 mm
10:00 AM 53.4°F11.9°C 48.4°F9.1°C 83% 6.9 mph N11.1 kmh N 13.0 mph20.9 kmh 30.40 in1029.5 mb 0.00 in0.0 mm 0.00 in0.0 mm 0.00 in0.0 mm
09:50 AM 53.1°F11.7°C 48.4°F9.1°C 84% 6.9 mph NNW11.1 kmh NNW 12.1 mph19.5 kmh 30.39 in1029.1 mb 0.00 in0.0 mm 0.00 in0.0 mm 0.00 in0.0 mm
09:40 AM 52.5°F11.4°C 48.2°F9.0°C 85% 8.1 mph NNE13.0 kmh NNE 15.0 mph24.1 kmh 30.39 in1029.1 mb 0.00 in0.0 mm 0.00 in0.0 mm 0.00 in0.0 mm
09:30 AM 52.3°F11.3°C 48.2°F9.0°C 86% 8.1 mph NNW13.0 kmh NNW 16.1 mph25.9 kmh 30.38 in1028.8 mb 0.00 in0.0 mm 0.00 in0.0 mm 0.00 in0.0 mm
09:20 AM 52.2°F11.2°C 48.4°F9.1°C 87% 8.1 mph NNW13.0 kmh NNW 17.9 mph28.8 kmh 30.38 in1028.8 mb 0.00 in0.0 mm 0.00 in0.0 mm 0.00 in0.0 mm
09:10 AM 51.6°F10.9°C 47.8°F8.8°C 87% 8.1 mph N13.0 kmh N 14.1 mph22.7 kmh 30.38 in1028.8 mb 0.00 in0.0 mm 0.00 in0.0 mm 0.00 in0.0 mm
09:00 AM 51.4°F10.8°C 48.0°F8.9°C 88% 8.1 mph NW13.0 kmh NW 14.1 mph22.7 kmh 30.38 in1028.8 mb 0.00 in0.0 mm 0.00 in0.0 mm 0.00 in0.0 mm
08:50 AM 50.7°F10.4°C 47.7°F8.7°C 89% 6.0 mph 9.7 kmh 14.1 mph22.7 kmh 30.37 in1028.4 mb 0.00 in0.0 mm 0.00 in0.0 mm 0.00 in0.0 mm
08:40 AM 50.2°F10.1°C 47.1°F8.4°C 89% 4.9 mph NNW7.9 kmh NNW 8.9 mph14.3 kmh 30.37 in1028.4 mb 0.00 in0.0 mm 0.00 in0.0 mm 0.00 in0.0 mm
08:30 AM 49.6°F9.8°C 46.6°F8.1°C 89% 4.0 mph NNW6.4 kmh NNW 6.0 mph9.7 kmh 30.37 in1028.4 mb 0.00 in0.0 mm 0.00 in0.0 mm 0.00 in0.0 mm
08:20 AM 49.5°F9.7°C 46.4°F8.0°C 89% 4.0 mph NW6.4 kmh NW 8.1 mph13.0 kmh 30.37 in1028.4 mb 0.00 in0.0 mm 0.00 in0.0 mm 0.00 in0.0 mm
08:10 AM 49.3°F9.6°C 46.2°F7.9°C 89% 2.9 mph NNW4.7 kmh NNW 6.0 mph9.7 kmh 30.36 in1028.1 mb 0.00 in0.0 mm 0.00 in0.0 mm 0.00 in0.0 mm
08:00 AM 48.9°F9.4°C 45.5°F7.5°C 88% 0.9 mph N1.4 kmh N 4.9 mph7.9 kmh 30.36 in1028.1 mb 0.00 in0.0 mm 0.00 in0.0 mm 0.00 in0.0 mm
07:50 AM 49.3°F9.6°C 45.9°F7.7°C 88% 2.9 mph N4.7 kmh N 6.0 mph9.7 kmh 30.36 in1028.1 mb 0.00 in0.0 mm 0.00 in0.0 mm 0.00 in0.0 mm
07:40 AM 49.6°F9.8°C 45.9°F7.7°C 87% 2.9 mph N4.7 kmh N 6.0 mph9.7 kmh 30.35 in1027.8 mb 0.00 in0.0 mm 0.00 in0.0 mm 0.00 in0.0 mm
07:30 AM 49.6°F9.8°C 45.9°F7.7°C 87% 2.9 mph NNW4.7 kmh NNW 4.9 mph7.9 kmh 30.34 in1027.4 mb 0.00 in0.0 mm 0.00 in0.0 mm 0.00 in0.0 mm
07:20 AM 50.2°F10.1°C 46.2°F7.9°C 86% 2.0 mph NNW3.2 kmh NNW 4.0 mph6.4 kmh 30.34 in1027.4 mb 0.00 in0.0 mm 0.00 in0.0 mm 0.00 in0.0 mm
07:10 AM 50.7°F10.4°C 46.8°F8.2°C 86% 2.9 mph NNW4.7 kmh NNW 4.9 mph7.9 kmh 30.34 in1027.4 mb 0.00 in0.0 mm 0.00 in0.0 mm 0.00 in0.0 mm
07:00 AM 51.3°F10.7°C 47.3°F8.5°C 86% 4.0 mph NNW6.4 kmh NNW 8.1 mph13.0 kmh 30.34 in1027.4 mb 0.00 in0.0 mm 0.00 in0.0 mm 0.00 in0.0 mm
06:50 AM 51.4°F10.8°C 47.1°F8.4°C 85% 4.9 mph NNW7.9 kmh NNW 10.1 mph16.3 kmh 30.33 in1027.1 mb 0.00 in0.0 mm 0.00 in0.0 mm 0.00 in0.0 mm
06:40 AM 51.6°F10.9°C 47.3°F8.5°C 85% 4.0 mph N6.4 kmh N 11.0 mph17.7 kmh 30.33 in1027.1 mb 0.00 in0.0 mm 0.00 in0.0 mm 0.00 in0.0 mm
06:30 AM 52.0°F11.1°C 47.7°F8.7°C 85% 4.0 mph N6.4 kmh N 8.9 mph14.3 kmh 30.32 in1026.8 mb 0.00 in0.0 mm 0.00 in0.0 mm 0.00 in0.0 mm
06:20 AM 52.3°F11.3°C 48.0°F8.9°C 85% 2.9 mph NNW4.7 kmh NNW 6.0 mph9.7 kmh 30.32 in1026.8 mb 0.00 in0.0 mm 0.00 in0.0 mm 0.00 in0.0 mm
06:10 AM 52.5°F11.4°C 48.2°F9.0°C 85% 4.0 mph N6.4 kmh N 8.1 mph13.0 kmh 30.32 in1026.8 mb 0.00 in0.0 mm 0.00 in0.0 mm 0.00 in0.0 mm
06:00 AM 52.9°F11.6°C 48.2°F9.0°C 84% 4.9 mph N7.9 kmh N 12.1 mph19.5 kmh 30.32 in1026.8 mb 0.00 in0.0 mm 0.00 in0.0 mm 0.00 in0.0 mm
05:50 AM 52.9°F11.6°C 48.2°F9.0°C 84% 2.9 mph NW4.7 kmh NW 8.1 mph13.0 kmh 30.32 in1026.8 mb 0.00 in0.0 mm 0.00 in0.0 mm 0.00 in0.0 mm
05:40 AM 53.1°F11.7°C 48.4°F9.1°C 84% 2.9 mph NNW4.7 kmh NNW 10.1 mph16.3 kmh 30.32 in1026.8 mb 0.00 in0.0 mm 0.00 in0.0 mm 0.00 in0.0 mm
05:30 AM 52.9°F11.6°C 48.2°F9.0°C 84% 4.0 mph NNW6.4 kmh NNW 10.1 mph16.3 kmh 30.32 in1026.8 mb 0.00 in0.0 mm 0.00 in0.0 mm 0.00 in0.0 mm
05:20 AM 53.1°F11.7°C 48.4°F9.1°C 84% 4.0 mph N6.4 kmh N 11.0 mph17.7 kmh 30.32 in1026.8 mb 0.00 in0.0 mm 0.00 in0.0 mm 0.00 in0.0 mm
05:10 AM 53.1°F11.7°C 48.0°F8.9°C 83% 4.0 mph NNE6.4 kmh NNE 10.1 mph16.3 kmh 30.32 in1026.8 mb 0.00 in0.0 mm 0.00 in0.0 mm 0.00 in0.0 mm
05:00 AM 53.1°F11.7°C 48.0°F8.9°C 83% 8.1 mph N13.0 kmh N 15.0 mph24.1 kmh 30.32 in1026.8 mb 0.00 in0.0 mm 0.00 in0.0 mm 0.00 in0.0 mm
04:50 AM 53.2°F11.8°C 48.2°F9.0°C 83% 6.9 mph NNW11.1 kmh NNW 15.0 mph24.1 kmh 30.32 in1026.8 mb 0.00 in0.0 mm 0.00 in0.0 mm 0.00 in0.0 mm
04:40 AM 53.2°F11.8°C 48.6°F9.2°C 84% 8.1 mph N13.0 kmh N 16.1 mph25.9 kmh 30.32 in1026.8 mb 0.00 in0.0 mm 0.00 in0.0 mm 0.00 in0.0 mm
04:30 AM 53.2°F11.8°C 48.9°F9.4°C 85% 6.0 mph N9.7 kmh N 12.1 mph19.5 kmh 30.32 in1026.8 mb 0.00 in0.0 mm 0.00 in0.0 mm 0.00 in0.0 mm
04:20 AM 53.4°F11.9°C 48.7°F9.3°C 84% 4.9 mph N7.9 kmh N 11.0 mph17.7 kmh 30.32 in1026.8 mb 0.00 in0.0 mm 0.00 in0.0 mm 0.00 in0.0 mm
04:10 AM 53.8°F12.1°C 48.7°F9.3°C 83% 6.9 mph NW11.1 kmh NW 14.1 mph22.7 kmh 30.32 in1026.8 mb 0.00 in0.0 mm 0.00 in0.0 mm 0.00 in0.0 mm
03:59 AM 53.8°F12.1°C 48.4°F9.1°C 82% 8.1 mph NNW13.0 kmh NNW 14.1 mph22.7 kmh 30.32 in1026.8 mb 0.00 in0.0 mm 0.00 in0.0 mm 0.00 in0.0 mm
03:49 AM 53.8°F12.1°C 48.7°F9.3°C 83% 8.1 mph NNW13.0 kmh NNW 21.0 mph33.8 kmh 30.32 in1026.8 mb 0.00 in0.0 mm 0.00 in0.0 mm 0.00 in0.0 mm
03:39 AM 54.0°F12.2°C 49.6°F9.8°C 85% 8.1 mph N13.0 kmh N 17.0 mph27.4 kmh 30.32 in1026.8 mb 0.00 in0.0 mm 0.00 in0.0 mm 0.00 in0.0 mm
03:29 AM 53.8°F12.1°C 49.5°F9.7°C 85% 6.9 mph 11.1 kmh 13.0 mph20.9 kmh 30.32 in1026.8 mb 0.00 in0.0 mm 0.00 in0.0 mm 0.00 in0.0 mm
03:19 AM 53.8°F12.1°C 49.6°F9.8°C 86% 6.0 mph N9.7 kmh N 13.0 mph20.9 kmh 30.32 in1026.8 mb 0.00 in0.0 mm 0.00 in0.0 mm 0.00 in0.0 mm
03:09 AM 54.0°F12.2°C 50.2°F10.1°C 87% 6.0 mph NNW9.7 kmh NNW 14.1 mph22.7 kmh 30.33 in1027.1 mb 0.00 in0.0 mm 0.00 in0.0 mm 0.00 in0.0 mm
02:59 AM 54.0°F12.2°C 50.2°F10.1°C 87% 6.0 mph NW9.7 kmh NW 15.0 mph24.1 kmh 30.33 in1027.1 mb 0.00 in0.0 mm 0.00 in0.0 mm 0.00 in0.0 mm
02:49 AM 54.0°F12.2°C 49.8°F9.9°C 86% 6.0 mph WNW9.7 kmh WNW 12.1 mph19.5 kmh 30.33 in1027.1 mb 0.00 in0.0 mm 0.00 in0.0 mm 0.00 in0.0 mm
02:39 AM 53.8°F12.1°C 49.5°F9.7°C 85% 8.1 mph NNW13.0 kmh NNW 14.1 mph22.7 kmh 30.33 in1027.1 mb 0.00 in0.0 mm 0.00 in0.0 mm 0.00 in0.0 mm
02:29 AM 54.0°F12.2°C 49.6°F9.8°C 85% 8.1 mph NNW13.0 kmh NNW 16.1 mph25.9 kmh 30.33 in1027.1 mb 0.00 in0.0 mm 0.00 in0.0 mm 0.00 in0.0 mm
02:19 AM 54.1°F12.3°C 49.8°F9.9°C 85% 8.9 mph 14.3 kmh 19.0 mph30.6 kmh 30.33 in1027.1 mb 0.00 in0.0 mm 0.00 in0.0 mm 0.00 in0.0 mm
02:09 AM 54.1°F12.3°C 50.0°F10.0°C 86% 8.1 mph NNW13.0 kmh NNW 15.0 mph24.1 kmh 30.33 in1027.1 mb 0.00 in0.0 mm 0.00 in0.0 mm 0.00 in0.0 mm
01:59 AM 54.0°F12.2°C 50.2°F10.1°C 87% 6.0 mph N9.7 kmh N 16.1 mph25.9 kmh 30.33 in1027.1 mb 0.00 in0.0 mm 0.00 in0.0 mm 0.00 in0.0 mm
01:49 AM 54.0°F12.2°C 50.2°F10.1°C 87% 6.0 mph NW9.7 kmh NW 13.0 mph20.9 kmh 30.33 in1027.1 mb 0.00 in0.0 mm 0.00 in0.0 mm 0.00 in0.0 mm
01:39 AM 54.0°F12.2°C 49.8°F9.9°C 86% 8.1 mph NW13.0 kmh NW 16.1 mph25.9 kmh 30.33 in1027.1 mb 0.00 in0.0 mm 0.00 in0.0 mm 0.00 in0.0 mm
01:29 AM 54.1°F12.3°C 50.4°F10.2°C 87% 8.1 mph NNE13.0 kmh NNE 15.0 mph24.1 kmh 30.33 in1027.1 mb 0.00 in0.0 mm 0.00 in0.0 mm 0.00 in0.0 mm
01:19 AM 54.7°F12.6°C 50.9°F10.5°C 87% 8.1 mph NW13.0 kmh NW 17.0 mph27.4 kmh 30.33 in1027.1 mb 0.00 in0.0 mm 0.00 in0.0 mm 0.00 in0.0 mm
01:09 AM 54.1°F12.3°C 50.0°F10.0°C 86% 6.0 mph NW9.7 kmh NW 17.0 mph27.4 kmh 30.33 in1027.1 mb 0.00 in0.0 mm 0.00 in0.0 mm 0.00 in0.0 mm
12:59 AM 54.1°F12.3°C 49.8°F9.9°C 85% 6.0 mph NW9.7 kmh NW 11.0 mph17.7 kmh 30.33 in1027.1 mb 0.00 in0.0 mm 0.00 in0.0 mm 0.00 in0.0 mm
12:49 AM 54.5°F12.5°C 50.0°F10.0°C 85% 8.1 mph NW13.0 kmh NW 17.0 mph27.4 kmh 30.34 in1027.4 mb 0.00 in0.0 mm 0.00 in0.0 mm 0.00 in0.0 mm
12:39 AM 54.9°F12.7°C 50.2°F10.1°C 84% 11.0 mph NW17.7 kmh NW 21.9 mph35.2 kmh 30.34 in1027.4 mb 0.00 in0.0 mm 0.00 in0.0 mm 0.00 in0.0 mm
12:29 AM 54.7°F12.6°C 50.0°F10.0°C 84% 8.1 mph NW13.0 kmh NW 21.9 mph35.2 kmh 30.34 in1027.4 mb 0.00 in0.0 mm 0.00 in0.0 mm 0.00 in0.0 mm
12:19 AM 54.3°F12.4°C 49.8°F9.9°C 85% 6.9 mph N11.1 kmh N 13.0 mph20.9 kmh 30.34 in1027.4 mb 0.00 in0.0 mm 0.00 in0.0 mm 0.00 in0.0 mm
12:09 AM 54.0°F12.2°C 49.8°F9.9°C 86% 6.0 mph NW9.7 kmh NW 15.0 mph24.1 kmh 30.35 in1027.8 mb 0.00 in0.0 mm 0.00 in0.0 mm 0.00 in0.0 mm